• Join FlightAware (Why Join?)
  • Login
  • US Flag 
09:48PM EST


 

Airport Tracker/Info


-or-


 

Live Flight TrackerFlight Track Log ✈ RPA3253 ✈ 12-May-2014 ✈ KCLT - KMSY

Flight Track Log - Related Links

Times and Time Zones

All times are in EDT time to prevent confusion due to time zone crossing. See the RPA3253 flight status page for this flight to view local times or setup timezone preferences in your user account.

Time Position Orientation Groundspeed Altitude Reporting Facility
EDT Latitude Longitude Course Direction KTS MPH feet Rate Location/Type
10:48PM 35.1892 -80.9508 251° West 150 173 1,700  Level Atlanta Center
10:49PM 35.1517 -80.9500 179° South 175 201 3,000 1,800 Climbing Atlanta Center
10:50PM 35.2667 -81.1551 270° West  Level FlightAware Approximate
10:50PM 35.1089 -80.9972 222° Southwest 267 307 5,000  Level Atlanta Center
10:50PM 35.1058 -81.0378 265° West 276 318 6,300 3,120 Climbing Atlanta Center
10:51PM 35.2215 -81.2361 199° South  Level FlightAware Approximate
10:51PM 35.1031 -81.0964 267° West 284 327 8,200  Level Atlanta Center
10:51PM 35.0975 -81.1347 260° West 286 329 9,200 1,920 Climbing Atlanta Center
10:52PM 35.1281 -81.2722 192° South  Level FlightAware Approximate
10:52PM 35.0928 -81.1983 265° West 304 350 10,200  Level Atlanta Center
10:52PM 35.0894 -81.2339 263° West 361 415 10,500 2,160 Climbing Atlanta Center
10:53PM 35.0661 -81.3439 251° West  Level FlightAware Approximate
10:53PM 35.0672 -81.3514 257° West 373 429 13,300  Level Atlanta Center
10:54PM 35.0342 -81.4667 251° West 368 423 15,800 2,280 Climbing Atlanta Center
10:55PM 35.0011 -81.5842 251° West 368 423 17,900 1,920 Climbing Atlanta Center
10:56PM 34.9636 -81.7019 249° West 374 430 19,700 1,920 Climbing Atlanta Center
10:57PM 34.9242 -81.8197 248° West 379 436 21,800 1,800 Climbing Atlanta Center
10:58PM 34.8592 -81.9303 234° Southwest 385 443 23,400 1,500 Climbing Atlanta Center
10:59PM 34.7986 -82.0406 236° Southwest 397 457 24,800 1,260 Climbing Atlanta Center
11:00PM 34.7336 -82.1533 235° Southwest 408 470 26,000 900 Climbing Atlanta Center
11:01PM 34.6644 -82.2786 236° Southwest 425 489 26,600 780 Climbing Atlanta Center
11:02PM 34.5931 -82.4036 235° Southwest 439 505 27,600 840 Climbing Atlanta Center
11:03PM 34.5217 -82.5286 235° Southwest 452 520 28,300 600 Climbing Atlanta Center
11:04PM 34.4461 -82.6583 235° Southwest 465 535 28,800 600 Climbing Atlanta Center
11:05PM 34.3703 -82.7881 235° Southwest 477 549 29,500 780 Climbing Atlanta Center
11:06PM 34.2881 -82.9350 236° Southwest 482 555 30,400 660 Climbing Atlanta Center
11:07PM 34.2119 -83.0667 235° Southwest 477 549 30,900 480 Climbing Atlanta Center
11:08PM 34.1336 -83.1956 234° Southwest 477 549 31,400 540 Climbing Atlanta Center
11:09PM 34.0572 -83.3242 234° Southwest 477 549 32,000 540 Climbing Atlanta Center
11:10PM 33.9828 -83.4525 235° Southwest 471 542 32,500 360 Climbing Atlanta Center
11:11PM 33.9061 -83.5833 235° Southwest 471 542 32,800 300 Climbing Atlanta Center
11:12PM 33.8314 -83.7086 234° Southwest 471 542 33,200 420 Climbing Atlanta Center
11:13PM 33.7544 -83.8364 234° Southwest 476 548 33,700 360 Climbing Atlanta Center
11:14PM 33.6814 -83.9614 235° Southwest 471 542 34,000 120 Climbing Atlanta Center
11:15PM 33.6000 -84.0911 233° Southwest 471 542 34,000  Level Atlanta Center
11:16PM 33.5269 -84.2158 235° Southwest 471 542 34,000  Level Atlanta Center
11:17PM 33.4536 -84.3400 235° Southwest 471 542 34,000  Level Atlanta Center
11:18PM 33.3761 -84.4642 233° Southwest 471 542 34,000  Level Atlanta Center
11:19PM 33.3047 -84.5806 234° Southwest 471 542 34,000  Level Atlanta Center
11:20PM 33.2311 -84.7019 234° Southwest 469 540 34,000  Level Atlanta Center
11:21PM 33.1467 -84.8378 233° Southwest 469 540 34,000  Level Atlanta Center
11:22PM 33.0706 -84.9633 234° Southwest 469 540 34,000  Level Atlanta Center
11:23PM 32.9925 -85.0889 233° Southwest 474 545 34,000  Level Atlanta Center
11:24PM 32.9142 -85.2142 233° Southwest 474 545 34,000  Level Atlanta Center
11:25PM 32.8378 -85.3417 235° Southwest 474 545 34,000  Level Atlanta Center
11:26PM 32.7611 -85.4642 233° Southwest 474 545 34,000  Level Atlanta Center
11:27PM 32.6844 -85.5886 234° Southwest 474 545 34,000  Level Atlanta Center
11:28PM 32.6078 -85.7106 233° Southwest 474 545 34,000  Level Atlanta Center
11:29PM 32.5308 -85.8325 233° Southwest 474 545 34,000  Level Atlanta Center
11:30PM 32.4625 -85.9442 234° Southwest 480 552 34,000  Level Atlanta Center
11:31PM 32.3853 -86.0656 233° Southwest 473 544 34,000  Level Atlanta Center
11:32PM 32.3019 -86.1914 232° Southwest 479 551 34,000  Level Atlanta Center
11:33PM 32.2181 -86.3219 233° Southwest 474 545 34,000  Level Atlanta Center
11:34PM 32.1511 -86.4453 237° Southwest 466 536 34,000  Level Atlanta Center
11:35PM 32.0756 -86.5658 234° Southwest 461 531 34,000  Level Atlanta Center
11:36PM 31.9981 -86.6836 232° Southwest 466 536 34,000  Level Atlanta Center
11:37PM 31.9161 -86.8011 231° Southwest 473 544 34,000  Level Atlanta Center
11:38PM 31.8361 -86.9233 232° Southwest 473 544 34,000 -1,020 Level Atlanta Center
11:39PM 31.7603 -87.0431 233° Southwest 473 544 32,000 -720 Descending Atlanta Center
11:41PM 31.6014 -87.2836 232° Southwest 463 533 32,000  Level Houston Center
11:42PM 31.5239 -87.4031 233° Southwest 463 533 32,000  Level Houston Center
11:43PM 31.4453 -87.5217 232° Southwest 463 533 32,000  Level Houston Center
11:44PM 31.3669 -87.6417 233° Southwest 463 533 32,000 -780 Level Houston Center
11:45PM 31.2889 -87.7603 232° Southwest 461 531 30,500 -1,020 Descending Houston Center
11:46PM 31.2072 -87.8856 233° Southwest 463 533 30,000 -300 Descending Houston Center
11:47PM 31.1272 -88.0072 232° Southwest 468 539 30,000  Level Houston Center
11:48PM 31.0464 -88.1278 232° Southwest 469 540 30,000  Level Houston Center
11:49PM 30.9633 -88.2489 231° Southwest 474 545 30,000  Level Houston Center
11:50PM 30.8836 -88.3708 233° Southwest 475 547 30,000  Level Houston Center
11:51PM 30.8031 -88.4914 232° Southwest 473 544 30,000  Level Houston Center
11:52PM 30.7214 -88.6111 232° Southwest 473 544 30,000  Level Houston Center
11:53PM 30.6358 -88.7392 232° Southwest 474 545 30,000  Level Houston Center
11:54PM 30.5542 -88.8597 232° Southwest 474 545 30,000 -60 Level Houston Center
11:55PM 30.4775 -88.9733 232° Southwest 474 545 29,900 -1,440 Descending Houston Center
11:56PM 30.4006 -89.0956 234° Southwest 473 544 27,100 -3,180 Descending Houston Center
11:57PM 30.3519 -89.2286 247° West 452 520 23,600 -3,780 Descending Houston Center
11:58PM 30.3317 -89.2831 247° West 434 499 22,200 -3,300 Descending Houston Center
11:58PM 30.3050 -89.3550 247° West 433 498 20,300 -3,420 Descending Houston Center
11:59PM 30.2783 -89.4231 246° West 408 470 18,500 -3,060 Descending Houston Center
11:59PM 30.2600 -89.4742 247° West 409 471 17,200 -3,060 Descending Houston Center
12:00AM 30.2347 -89.5431 247° West 397 457 15,400 -3,060 Descending Houston Center
12:00AM 30.2156 -89.5917 245° Southwest 399 459 14,100 -2,880 Descending Houston Center
12:01AM 30.1947 -89.6533 249° West 378 435 12,500 -3,000 Descending Houston Center
12:01AM 30.1761 -89.7033 247° West 378 435 11,100 -2,220 Descending Houston Center
12:02AM 30.1567 -89.7633 249° West 358 412 10,300 -1,140 Descending Houston Center
12:02AM 30.1425 -89.8078 250° West 353 406 10,000 -1,020 Descending Houston Center
12:03AM 30.1286 -89.8558 252° West 293 337 9,300 -1,620 Descending Houston Center
12:03AM 30.1167 -89.8978 252° West 307 353 8,400 -1,800 Descending Houston Center
12:04AM 30.1042 -89.9436 253° West 283 326 7,500 -1,740 Descending Houston Center
12:04AM 30.0925 -89.9858 252° West 291 335 6,700 -1,800 Descending Houston Center
12:05AM 30.0758 -90.0361 249° West 281 323 5,700 -2,100 Descending Houston Center
12:05AM 30.0625 -90.0869 253° West 282 325 4,600 -1,680 Descending Houston Center
12:06AM 30.0550 -90.1067 246° West 275 316 4,200 -900 Descending Houston Center
12:06AM 30.0397 -90.1703 255° West 278 320 3,700 -900 Descending Houston Center
12:07AM 30.0433 -90.1983 278° West 276 318 3,300 -1,800 Descending Houston Center
12:07AM 30.0572 -90.2589 285° West 282 325 1,900 -1,800 Descending Houston Center
12:08AM 30.0606 -90.2842 279° West 277 319 1,500 -360 Descending Houston Center
12:09AM 30.0689 -90.3558 278° West 227 261 1,500 -180 Level Houston Center
12:10AM 30.0231 -90.3600 185° South 148 170 1,200 -360 Descending Houston Center
12:10AM 30.0117 -90.3358 119° Southeast 144 166 900 -480 Descending Houston Center
12:11AM 30.0075 -90.3294 127° Southeast 116 133 800 -540 Descending Houston Center
12:11AM 30.0022 -90.3008 102° East 132 152 400 -600 Descending Houston Center
12:12AM 29.9981 -90.2914 117° Southeast 117 135 200 -1,140 Descending Houston Center